Latest Weather Observations for Flinders Reef

IDQ60801

Issued at 4:22 pm EST Saturday 5 December 2020 (issued every 10 minutes, with the page automatically refreshed every 10 minutes)

About weather observations | Map of weather stations | Latest weather observations for QLD | Other Formats
Station Details ID: 200783 Name: FLINDERS REEF Lat: -17.72 Lon: 148.45 Height: 2.6 m
Data from the previous 72 hours. | See also: Recent months at Flinders Reef
Date/Time
EST
Temp
°C
App
Temp
°C
Dew
Point
°C
Rel
Hum
%
Delta-T
°C
Wind Press
QNH
hPa
Press
MSL
hPa
Rain since
9am
mm
Dir  Spd
km/h
Gust
km/h
Spd
kts
Gust
kts
05/04:00pm 26.8 - - - - ESE 17 20 9 11 1010.8 1010.7 -
05/03:30pm 26.8 - - - - ESE 15 17 8 9 1010.8 1010.7 -
05/03:00pm 26.8 - - - - ESE 13 19 7 10 1010.9 1010.8 -
05/02:30pm 27.3 - - - - ESE 13 17 7 9 1011.2 1011.1 -
05/02:00pm 27.1 - - - - ESE 11 13 6 7 1011.3 1011.2 -
05/01:30pm 26.8 - - - - ESE 13 15 7 8 1011.4 1011.3 -
05/01:00pm 26.9 - - - - ESE 11 13 6 7 1011.5 1011.4 -
05/12:30pm 26.8 - - - - E 11 15 6 8 1011.8 1011.7 -
05/12:00pm 27.0 - - - - E 13 15 7 8 1012.1 1012.0 -
05/11:30am 27.2 - - - - E 13 15 7 8 1012.4 1012.3 -
05/11:00am 27.1 - - - - E 13 17 7 9 1012.7 1012.6 -
05/10:30am 27.5 - - - - E 15 17 8 9 1012.8 1012.7 -
05/10:00am 27.1 - - - - E 15 17 8 9 1013.0 1012.9 -
05/09:30am 27.6 - - - - E 17 20 9 11 1013.1 1013.0 -
05/09:00am 27.3 - - - - E 19 20 10 11 1013.3 1013.2 -
05/08:30am 27.4 - - - - E 17 20 9 11 1013.2 1013.1 -
05/08:00am 27.2 - - - - E 20 24 11 13 1013.1 1013.0 -
05/07:30am 26.7 - - - - ENE 15 19 8 10 1012.9 1012.8 -
05/07:00am 27.1 - - - - ENE 17 20 9 11 1012.8 1012.7 -
05/06:30am 26.9 - - - - ENE 17 19 9 10 1012.5 1012.4 -
05/06:00am 26.5 - - - - ENE 17 20 9 11 1012.3 1012.2 -
05/05:30am 26.1 - - - - ENE 19 22 10 12 1011.7 1011.6 -
05/05:00am 26.2 - - - - ENE 20 22 11 12 1011.4 1011.3 -
05/04:30am 26.3 - - - - ENE 22 28 12 15 1011.0 1010.9 -
05/04:00am 26.1 - - - - ENE 19 20 10 11 1011.0 1010.9 -
05/03:30am 26.3 - - - - ENE 22 28 12 15 1011.0 1010.9 -
05/03:00am 26.2 - - - - ENE 22 28 12 15 1011.1 1011.0 -
05/02:30am 26.2 - - - - ENE 22 28 12 15 1011.0 1010.9 -
05/02:00am 26.2 - - - - ENE 24 28 13 15 1010.9 1010.8 -
05/01:30am 26.3 - - - - ENE 28 32 15 17 1011.1 1011.0 -
05/01:00am 26.3 - - - - ENE 24 30 13 16 1011.3 1011.2 -
05/12:30am 26.3 - - - - E 28 32 15 17 1011.3 1011.2 -
05/12:00am 26.3 - - - - ENE 28 33 15 18 1011.5 1011.4 -
 
Date/Time
EST
Temp
°C
App
Temp
°C
Dew
Point
°C
Rel
Hum
%
Delta-T
°C
Wind Press
QNH
hPa
Press
MSL
hPa
Rain since
9am
mm
Dir  Spd
km/h
Gust
km/h
Spd
kts
Gust
kts
04/11:30pm 26.4 - - - - E 28 33 15 18 1012.0 1011.9 -
04/11:00pm 26.4 - - - - E 32 35 17 19 1012.2 1012.1 -
04/10:30pm 26.4 - - - - E 30 35 16 19 1012.4 1012.3 -
04/10:00pm 26.4 - - - - E 32 37 17 20 1012.2 1012.1 -
04/09:30pm 26.5 - - - - ESE 28 32 15 17 1012.3 1012.2 -
04/09:00pm 26.6 - - - - E 30 35 16 19 1012.1 1012.0 -
04/08:30pm 26.8 - - - - ESE 32 37 17 20 1012.0 1011.9 -
04/08:00pm 26.7 - - - - ESE 33 37 18 20 1011.8 1011.7 -
04/07:30pm 26.7 - - - - ESE 35 41 19 22 1011.6 1011.5 -
04/07:00pm 26.7 - - - - ESE 33 39 18 21 1011.3 1011.2 -
04/06:30pm 26.8 - - - - ESE 33 39 18 21 1011.2 1011.1 -
04/06:00pm 26.8 - - - - ESE 32 35 17 19 1010.9 1010.8 -
04/05:30pm 26.8 - - - - E 32 35 17 19 1010.9 1010.8 -
04/05:00pm 26.9 - - - - ESE 28 35 15 19 1010.8 1010.7 -
04/04:30pm 26.9 - - - - ESE 30 33 16 18 1010.7 1010.6 -
04/04:00pm 26.9 - - - - ESE 30 35 16 19 1010.8 1010.7 -
04/03:30pm 26.8 - - - - ESE 32 37 17 20 1010.8 1010.7 -
04/03:00pm 26.8 - - - - ESE 33 39 18 21 1010.9 1010.8 -
04/02:30pm 26.9 - - - - ESE 33 39 18 21 1011.2 1011.1 -
04/02:00pm 26.8 - - - - ESE 35 41 19 22 1011.5 1011.4 -
04/01:30pm 26.8 - - - - ESE 33 37 18 20 1012.0 1011.9 -
04/01:00pm 26.8 - - - - ESE 33 37 18 20 1012.5 1012.4 -
04/12:30pm 26.7 - - - - ESE 32 37 17 20 1012.9 1012.8 -
04/12:00pm 26.7 - - - - ESE 33 39 18 21 1013.3 1013.2 -
04/11:30am 26.8 - - - - ESE 33 37 18 20 1013.5 1013.4 -
04/11:00am 26.9 - - - - ESE 32 37 17 20 1013.8 1013.7 -
04/10:30am 26.8 - - - - ESE 32 35 17 19 1014.3 1014.2 -
04/10:00am 26.8 - - - - SE 32 37 17 20 1014.4 1014.3 -
04/09:30am 26.8 - - - - ESE 33 37 18 20 1014.6 1014.5 -
04/09:00am 26.8 - - - - ESE 35 39 19 21 1014.6 1014.5 -
04/08:30am 26.7 - - - - ESE 37 43 20 23 1014.6 1014.5 -
04/08:00am 26.7 - - - - ESE 35 41 19 22 1014.6 1014.5 -
04/07:30am 26.7 - - - - ESE 33 39 18 21 1014.4 1014.3 -
04/07:00am 26.6 - - - - ESE 33 39 18 21 1014.4 1014.3 -
04/06:30am 26.5 - - - - ESE 35 41 19 22 1013.9 1013.8 -
04/06:00am 26.5 - - - - ESE 35 41 19 22 1013.6 1013.5 -
04/05:30am 26.4 - - - - ESE 35 41 19 22 1013.2 1013.1 -
04/05:00am 26.4 - - - - ESE 35 39 19 21 1012.9 1012.8 -
04/04:30am 26.5 - - - - E 35 41 19 22 1012.7 1012.6 -
04/04:00am 26.5 - - - - E 33 39 18 21 1012.5 1012.4 -
04/03:30am 26.5 - - - - E 33 37 18 20 1012.4 1012.3 -
04/03:00am 26.4 - - - - E 32 35 17 19 1012.3 1012.2 -
04/02:30am 26.7 - - - - E 35 39 19 21 1012.5 1012.4 -
04/02:00am 26.5 - - - - E 35 39 19 21 1012.8 1012.7 -
04/01:30am 26.7 - - - - E 35 43 19 23 1012.9 1012.8 -
04/01:00am 26.6 - - - - E 37 41 20 22 1013.2 1013.1 -
04/12:30am 26.7 - - - - E 35 41 19 22 1013.5 1013.4 -
04/12:00am 26.7 - - - - E 33 41 18 22 1013.6 1013.5 -
 
Date/Time
EST
Temp
°C
App
Temp
°C
Dew
Point
°C
Rel
Hum
%
Delta-T
°C
Wind Press
QNH
hPa
Press
MSL
hPa
Rain since
9am
mm
Dir  Spd
km/h
Gust
km/h
Spd
kts
Gust
kts
03/11:30pm 26.7 - - - - E 35 41 19 22 1014.1 1014.0 -
03/11:00pm 26.9 - - - - ESE 37 43 20 23 1014.3 1014.2 -
03/10:30pm 26.9 - - - - ESE 35 43 19 23 1014.3 1014.2 -
03/10:00pm 26.9 - - - - ESE 33 37 18 20 1014.4 1014.3 -
03/09:30pm 26.8 - - - - ESE 35 39 19 21 1014.1 1014.0 -
03/09:00pm 26.8 - - - - ESE 35 41 19 22 1013.9 1013.8 -
03/08:30pm 26.8 - - - - ESE 35 43 19 23 1013.8 1013.7 -
03/08:00pm 26.8 - - - - SE 32 37 17 20 1013.7 1013.6 -
03/07:30pm 26.8 - - - - SE 32 35 17 19 1013.4 1013.3 -
03/07:00pm 27.0 - - - - SE 32 35 17 19 1013.2 1013.1 -
03/06:30pm 27.1 - - - - SE 32 37 17 20 1013.0 1012.9 -
03/06:00pm 26.9 - - - - SE 32 39 17 21 1012.7 1012.6 -
03/05:30pm 27.0 - - - - SE 35 39 19 21 1012.6 1012.5 -
03/05:00pm 27.0 - - - - SE 30 35 16 19 1012.5 1012.4 -
03/04:30pm 27.0 - - - - ESE 30 33 16 18 1012.4 1012.3 -
03/04:00pm 27.0 - - - - ESE 30 35 16 19 1012.2 1012.1 -
03/03:30pm 27.0 - - - - ESE 28 32 15 17 1012.2 1012.1 -
03/03:00pm 26.9 - - - - ESE 28 33 15 18 1012.5 1012.4 -
03/02:30pm 27.0 - - - - ESE 28 32 15 17 1012.6 1012.5 -
03/02:00pm 27.0 - - - - E 32 39 17 21 1012.9 1012.8 -
03/01:30pm 27.0 - - - - E 32 37 17 20 1013.1 1013.0 -
03/01:00pm 27.1 - - - - E 32 39 17 21 1013.4 1013.3 -
03/12:30pm 27.0 - - - - ESE 35 41 19 22 1013.8 1013.7 -
03/12:00pm 27.2 - - - - E 33 39 18 21 1013.9 1013.8 -
03/11:30am 27.3 - - - - E 35 43 19 23 1014.2 1014.1 -
03/11:00am 27.1 - - - - E 41 44 22 24 1014.3 1014.2 -
03/10:30am 27.1 - - - - ESE 35 43 19 23 1014.3 1014.2 -
03/10:00am 27.1 - - - - ESE 41 46 22 25 1014.1 1014.0 -
03/09:30am 27.0 - - - - E 37 44 20 24 1014.1 1014.0 -
03/09:00am 27.0 - - - - E 35 41 19 22 1014.0 1013.9 -
03/08:30am 27.0 - - - - E 37 41 20 22 1014.0 1013.9 -
03/08:00am 27.0 - - - - E 35 41 19 22 1013.6 1013.5 -
03/07:30am 26.8 - - - - E 35 41 19 22 1013.2 1013.1 -
03/07:00am 26.8 - - - - E 35 41 19 22 1013.1 1013.0 -
03/06:30am 26.7 - - - - ESE 35 41 19 22 1012.9 1012.8 -
03/06:00am 26.5 - - - - E 32 37 17 20 1012.5 1012.4 -
03/05:30am 26.5 - - - - E 33 39 18 21 1012.1 1012.0 -
03/05:00am 26.5 - - - - E 33 39 18 21 1011.7 1011.6 -
03/04:30am 26.4 - - - - E 32 37 17 20 1011.5 1011.4 -
03/04:00am 26.3 - - - - E 35 39 19 21 1011.4 1011.3 -
03/03:30am 26.3 - - - - E 30 33 16 18 1011.6 1011.5 -
03/03:00am 26.4 - - - - E 33 39 18 21 1011.6 1011.5 -
03/02:30am 26.4 - - - - E 30 35 16 19 1011.7 1011.6 -
03/02:00am 26.4 - - - - E 33 37 18 20 1011.9 1011.8 -
03/01:30am 26.4 - - - - E 33 39 18 21 1012.1 1012.0 -
03/01:00am 26.6 - - - - E 33 37 18 20 1012.5 1012.4 -
03/12:30am 26.6 - - - - E 32 35 17 19 1012.8 1012.7 -
03/12:00am 26.7 - - - - E 30 35 16 19 1013.1 1013.0 -
 
Date/Time
EST
Temp
°C
App
Temp
°C
Dew
Point
°C
Rel
Hum
%
Delta-T
°C
Wind Press
QNH
hPa
Press
MSL
hPa
Rain since
9am
mm
Dir  Spd
km/h
Gust
km/h
Spd
kts
Gust
kts
02/11:30pm 27.0 - - - - E 30 35 16 19 1013.4 1013.3 -
02/11:00pm 26.9 - - - - E 32 35 17 19 1013.7 1013.6 -
02/10:30pm 26.9 - - - - E 33 37 18 20 1013.9 1013.8 -
02/10:00pm 26.8 - - - - E 32 35 17 19 1014.0 1013.9 -
02/09:30pm 26.8 - - - - E 33 39 18 21 1013.9 1013.8 -
02/09:00pm 26.9 - - - - E 35 41 19 22 1013.7 1013.6 -
02/08:30pm 26.9 - - - - E 35 37 19 20 1013.6 1013.5 -
02/08:00pm 27.0 - - - - E 30 35 16 19 1013.5 1013.4 -
02/07:30pm 27.0 - - - - E 32 35 17 19 1013.2 1013.1 -
02/07:00pm 27.0 - - - - E 32 37 17 20 1012.9 1012.8 -
02/06:30pm 27.0 - - - - ESE 30 35 16 19 1012.6 1012.5 -
02/06:00pm 27.2 - - - - E 30 33 16 18 1012.4 1012.3 -
02/05:30pm 27.2 - - - - E 28 32 15 17 1012.2 1012.1 -
02/05:00pm 27.0 - - - - E 26 30 14 16 1011.9 1011.8 -
02/04:30pm 27.1 - - - - E 24 28 13 15 1011.9 1011.8 -

Other formats

Comma delimited format used in spreadsheet applications
http://www.bom.gov.au/fwo/IDQ60801/IDQ60801.94290.axf

JavaScript Object Notation format (JSON) in row-major order
http://www.bom.gov.au/fwo/IDQ60801/IDQ60801.94290.json

Data quality

Most of these data are generated automatically and are frequently updated. Quality checks on data are not normally performed. It is possible for incorrect values to appear. Refer to information at About Latest Weather Observations and please check the disclaimer before using these data.